Time;durP1;ratioP1;P1;durP2;ratioP2;P2;SDS_P1;SDS_P2;PMS_P1;PMS_P2;Temp;Humidity;BMP_temperature;BMP_pressure;BME280_temperature;BME280_humidity;BME280_pressure;Samples;Min_cycle;Max_cycle;Signal;HPM_P1;HPM_P2
2023/07/19 00:00:21;;;;;;;5.50;1.20;;;;;;;15.61;62.84;100068.45;110023;1279;22226;-80
2023/07/19 00:03:12;;;;;;;9.10;1.70;;;;;;;15.59;62.95;100058.59;110017;1274;22751;-80
2023/07/19 00:05:42;;;;;;;12.00;1.80;;;;;;;15.58;62.85;100053.52;110016;1277;22158;-80
2023/07/19 00:08:14;;;;;;;7.70;1.60;;;;;;;15.54;63.18;100050.43;110008;1270;22429;-80
2023/07/19 00:10:45;;;;;;;7.80;1.50;;;;;;;15.47;63.38;100052.86;109993;1280;22852;-80
2023/07/19 00:13:15;;;;;;;8.50;1.20;;;;;;;15.40;63.59;100044.89;110038;1270;22268;-80
2023/07/19 00:15:46;;;;;;;9.30;1.80;;;;;;;15.33;63.87;100046.13;109996;1280;22832;-80
2023/07/19 00:18:17;;;;;;;8.10;1.40;;;;;;;15.27;64.04;100041.29;110035;1270;22204;-80
2023/07/19 00:20:47;;;;;;;8.20;1.70;;;;;;;15.22;64.05;100039.00;110019;1273;22204;-80
2023/07/19 00:23:18;;;;;;;9.50;1.50;;;;;;;15.18;64.02;100037.89;110036;1272;22131;-80
2023/07/19 00:25:49;;;;;;;11.70;1.80;;;;;;;15.15;64.24;100041.68;110043;1280;22208;-80
2023/07/19 00:28:20;;;;;;;5.40;1.20;;;;;;;15.11;64.29;100043.63;110033;1277;22170;-80
2023/07/19 00:30:59;;;;;;;8.60;1.60;;;;;;;15.06;64.68;100041.55;110033;1273;22198;-80
2023/07/19 00:33:29;;;;;;;5.20;1.20;;;;;;;15.03;64.70;100041.14;109988;1277;22180;-80
2023/07/19 00:36:00;;;;;;;5.80;1.40;;;;;;;14.98;64.94;100042.08;110040;1276;22895;-80
2023/07/19 00:38:31;;;;;;;6.40;1.50;;;;;;;14.96;64.81;100037.83;110014;1273;22278;-80
2023/07/19 00:41:02;;;;;;;7.40;1.60;;;;;;;14.93;64.93;100036.57;109989;1280;23015;-79
2023/07/19 00:43:32;;;;;;;7.00;1.30;;;;;;;14.91;65.16;100034.07;110037;1270;22222;-80
2023/07/19 00:46:03;;;;;;;7.90;1.50;;;;;;;14.87;65.26;100033.98;110031;1274;22379;-80
2023/07/19 00:48:34;;;;;;;6.30;1.30;;;;;;;14.85;65.25;100035.70;110038;1274;22173;-80
2023/07/19 00:51:05;;;;;;;6.60;1.30;;;;;;;14.86;65.71;100025.90;110024;1277;22142;-80
2023/07/19 00:53:36;;;;;;;6.30;1.50;;;;;;;14.82;65.85;100030.56;110028;1276;22489;-79
2023/07/19 00:56:09;;;;;;;6.50;1.30;;;;;;;14.79;66.06;100028.27;110046;1273;22587;-80
2023/07/19 00:58:41;;;;;;;7.10;1.50;;;;;;;14.73;66.15;100028.02;110034;1280;22857;-80
2023/07/19 01:01:12;;;;;;;8.10;1.30;;;;;;;14.66;66.24;100025.00;109927;1277;22213;-80
2023/07/19 01:03:43;;;;;;;6.10;1.30;;;;;;;14.60;66.34;100018.27;110035;1273;22980;-80
2023/07/19 01:06:14;;;;;;;6.20;1.30;;;;;;;14.54;66.61;100018.88;110017;1272;23135;-80
2023/07/19 01:08:44;;;;;;;8.60;1.50;;;;;;;14.51;66.51;100014.64;109997;1275;22235;-80
2023/07/19 01:11:15;;;;;;;7.30;1.50;;;;;;;14.54;66.80;100005.10;109997;1273;23003;-80
2023/07/19 01:13:53;;;;;;;7.20;1.40;;;;;;;14.55;66.73;100002.39;110018;1274;23018;-80
2023/07/19 01:16:24;;;;;;;5.40;1.30;;;;;;;14.52;66.89;100002.14;110020;1280;22180;-80
2023/07/19 01:18:56;;;;;;;10.50;1.80;;;;;;;14.46;67.14;100004.69;110034;1276;22478;-80
2023/07/19 01:21:26;;;;;;;8.60;1.30;;;;;;;14.42;67.14;100008.94;110050;1273;22331;-80
2023/07/19 01:23:57;;;;;;;7.70;1.80;;;;;;;14.39;67.26;100004.96;110017;1273;22215;-79
2023/07/19 01:26:28;;;;;;;8.70;1.60;;;;;;;14.38;67.46;100008.67;110036;1266;22203;-80
2023/07/19 01:28:59;;;;;;;6.90;1.50;;;;;;;14.35;67.61;100008.83;110039;1280;22912;-80
2023/07/19 01:31:30;;;;;;;5.40;1.20;;;;;;;14.30;67.68;100009.09;110073;1274;23072;-80
2023/07/19 01:34:01;;;;;;;9.90;1.60;;;;;;;14.27;67.84;100009.52;110027;1271;22153;-80
2023/07/19 01:36:31;;;;;;;5.70;1.50;;;;;;;14.23;67.78;100003.90;110057;1277;22175;-80
2023/07/19 01:39:02;;;;;;;5.70;1.40;;;;;;;14.19;68.01;100005.38;110048;1277;22315;-80
2023/07/19 01:41:33;;;;;;;7.40;1.50;;;;;;;14.15;68.07;100001.19;110068;1265;22237;-80
2023/07/19 01:44:03;;;;;;;9.50;1.70;;;;;;;14.11;68.09;99996.23;110035;1277;22204;-80
2023/07/19 01:46:35;;;;;;;5.20;1.50;;;;;;;14.08;68.24;99990.26;110043;1280;22345;-79
2023/07/19 01:49:06;;;;;;;6.90;1.40;;;;;;;14.05;68.48;99994.14;110014;1269;23150;-79
2023/07/19 01:51:36;;;;;;;8.70;1.60;;;;;;;14.02;68.64;99996.98;110029;1280;22159;-80
2023/07/19 01:54:07;;;;;;;8.70;1.70;;;;;;;13.99;68.53;99991.52;110016;1273;22195;-80
2023/07/19 01:56:38;;;;;;;7.50;1.50;;;;;;;13.94;68.63;99992.19;110022;1276;22211;-80
2023/07/19 01:59:08;;;;;;;7.70;1.30;;;;;;;13.90;68.64;99992.44;110002;1274;22188;-80
2023/07/19 02:01:39;;;;;;;5.90;1.50;;;;;;;13.89;68.83;99992.17;110015;1280;22191;-80
2023/07/19 02:04:10;;;;;;;5.60;1.30;;;;;;;13.86;68.97;99989.41;110028;1274;22253;-80
2023/07/19 02:06:41;;;;;;;8.70;1.70;;;;;;;13.82;69.22;99988.70;109999;1274;22872;-80
2023/07/19 02:09:11;;;;;;;7.60;1.60;;;;;;;13.78;69.22;99993.64;110035;1277;22228;-80
2023/07/19 02:11:42;;;;;;;8.20;1.70;;;;;;;13.77;69.54;99997.35;110050;1273;22207;-80
2023/07/19 02:14:13;;;;;;;6.20;1.40;;;;;;;13.74;69.60;99998.73;110027;1271;22378;-80
2023/07/19 02:16:43;;;;;;;6.40;1.40;;;;;;;13.72;69.66;100000.66;110058;1280;22171;-80
2023/07/19 02:19:14;;;;;;;6.80;1.20;;;;;;;13.71;69.68;100002.77;110029;1273;22953;-80
2023/07/19 02:21:45;;;;;;;14.30;2.10;;;;;;;13.67;69.88;100003.24;110024;1273;22580;-80
2023/07/19 02:24:16;;;;;;;17.60;1.60;;;;;;;13.63;69.97;99999.94;110041;1280;23201;-80
2023/07/19 02:26:46;;;;;;;8.90;1.90;;;;;;;13.61;70.06;99999.52;110048;1279;22111;-80
2023/07/19 02:29:17;;;;;;;7.20;1.70;;;;;;;13.59;70.38;100003.23;110051;1273;23018;-80
2023/07/19 02:31:48;;;;;;;11.20;1.70;;;;;;;13.57;70.25;99999.60;110055;1280;22309;-80
2023/07/19 02:34:20;;;;;;;8.20;1.70;;;;;;;13.56;70.39;99988.95;109993;1273;22353;-80
2023/07/19 02:36:51;;;;;;;6.30;1.60;;;;;;;13.52;70.41;99986.84;110011;1280;22200;-80
2023/07/19 02:39:22;;;;;;;8.50;1.60;;;;;;;13.50;70.42;99986.33;109999;1273;22802;-79
2023/07/19 02:41:52;;;;;;;7.70;1.50;;;;;;;13.49;70.66;99985.30;110068;1279;22912;-80
2023/07/19 02:44:23;;;;;;;8.10;1.60;;;;;;;13.48;70.72;99984.73;110043;1280;22368;-80
2023/07/19 02:46:54;;;;;;;7.20;1.50;;;;;;;13.47;70.88;99984.17;110026;1280;22600;-80
2023/07/19 02:49:25;;;;;;;6.90;1.30;;;;;;;13.46;71.03;99984.58;110023;1277;22965;-80
2023/07/19 02:51:56;;;;;;;8.10;1.40;;;;;;;13.43;71.16;99982.98;110048;1274;22238;-80
2023/07/19 02:54:27;;;;;;;8.30;1.30;;;;;;;13.42;71.27;99983.13;110032;1274;23481;-80
2023/07/19 02:56:57;;;;;;;9.30;1.50;;;;;;;13.40;71.39;99978.29;110019;1277;23077;-80
2023/07/19 02:59:28;;;;;;;6.90;1.50;;;;;;;13.39;71.54;99972.88;110036;1274;22216;-80
2023/07/19 03:01:59;;;;;;;6.80;1.40;;;;;;;13.36;71.67;99971.09;110067;1275;23323;-80
2023/07/19 03:04:30;;;;;;;8.80;1.70;;;;;;;13.33;71.77;99975.27;110002;1280;22174;-80
2023/07/19 03:07:01;;;;;;;6.60;1.60;;;;;;;13.31;71.72;99978.40;110026;1273;22373;-80
2023/07/19 03:09:32;;;;;;;7.00;1.50;;;;;;;13.28;71.93;99980.18;110006;1270;22432;-81
2023/07/19 03:12:03;;;;;;;5.60;1.40;;;;;;;13.26;72.30;99977.17;110030;1274;22317;-80
2023/07/19 03:14:34;;;;;;;8.40;1.70;;;;;;;13.27;72.10;99973.95;110043;1274;22248;-80
2023/07/19 03:17:05;;;;;;;8.10;1.80;;;;;;;13.27;72.45;99967.95;110062;1280;22139;-80
2023/07/19 03:19:36;;;;;;;9.00;1.40;;;;;;;13.24;72.28;99970.11;110010;1280;22897;-80
2023/07/19 03:22:07;;;;;;;6.30;1.70;;;;;;;13.21;72.40;99972.56;110027;1280;22369;-80
2023/07/19 03:24:38;;;;;;;8.40;1.90;;;;;;;13.18;72.34;99976.16;110056;1280;22291;-80
2023/07/19 03:27:09;;;;;;;9.60;1.50;;;;;;;13.13;72.47;99974.81;110058;1276;22248;-80
2023/07/19 03:29:40;;;;;;;9.70;1.30;;;;;;;13.09;72.31;99974.39;110029;1273;22258;-80
2023/07/19 03:32:11;;;;;;;9.20;1.60;;;;;;;13.07;72.22;99977.14;110041;1279;22405;-80
2023/07/19 03:34:41;;;;;;;8.90;1.70;;;;;;;13.05;72.53;99976.30;110043;1280;22199;-80
2023/07/19 03:37:12;;;;;;;11.50;1.50;;;;;;;13.00;72.64;99979.21;110030;1274;22889;-80
2023/07/19 03:39:43;;;;;;;9.40;1.60;;;;;;;12.98;72.94;99984.55;110010;1274;22375;-80
2023/07/19 03:42:14;;;;;;;8.50;1.30;;;;;;;12.96;72.89;99978.68;110023;1275;22186;-80
2023/07/19 03:44:44;;;;;;;6.80;1.40;;;;;;;12.94;73.36;99974.91;110007;1277;22196;-80
2023/07/19 03:47:15;;;;;;;8.30;1.40;;;;;;;12.95;73.46;99975.37;110025;1274;22337;-80
2023/07/19 03:49:45;;;;;;;5.50;1.30;;;;;;;12.96;73.59;99973.28;110035;1274;22144;-80
2023/07/19 03:52:16;;;;;;;9.00;1.50;;;;;;;12.97;73.71;99975.18;110037;1273;22504;-80
2023/07/19 03:54:47;;;;;;;7.00;1.60;;;;;;;12.99;73.92;99971.05;110041;1280;22166;-81
2023/07/19 03:57:18;;;;;;;7.30;1.60;;;;;;;13.01;73.95;99969.23;110001;1273;22183;-80
2023/07/19 03:59:48;;;;;;;8.90;1.80;;;;;;;13.05;74.27;99967.39;110018;1274;22236;-81
2023/07/19 04:02:20;;;;;;;7.40;1.50;;;;;;;13.08;74.37;99965.68;110014;1273;22438;-80
2023/07/19 04:04:50;;;;;;;7.40;1.60;;;;;;;13.11;74.47;99965.94;110020;1280;22142;-81
2023/07/19 04:07:21;;;;;;;7.30;1.50;;;;;;;13.15;74.61;99964.17;110032;1277;22393;-81
2023/07/19 04:09:52;;;;;;;11.40;2.00;;;;;;;13.20;74.82;99967.91;110010;1266;22707;-82
2023/07/19 04:12:22;;;;;;;16.10;2.20;;;;;;;13.26;75.08;99963.80;110007;1273;22217;-79
2023/07/19 04:14:53;;;;;;;8.80;1.50;;;;;;;13.32;75.25;99963.63;109978;1273;22293;-80
2023/07/19 04:17:24;;;;;;;9.50;1.60;;;;;;;13.40;75.07;99969.11;110005;1273;22549;-79
2023/07/19 04:19:55;;;;;;;7.70;1.70;;;;;;;13.47;75.13;99969.18;110042;1280;22938;-79
2023/07/19 04:22:25;;;;;;;11.70;1.80;;;;;;;13.56;75.17;99974.40;110004;1269;22166;-79
2023/07/19 04:24:56;;;;;;;8.60;1.70;;;;;;;13.64;75.07;99980.70;110006;1274;23065;-78
2023/07/19 04:27:27;;;;;;;7.50;1.30;;;;;;;13.70;74.96;99979.50;110037;1276;22616;-79
2023/07/19 04:29:57;;;;;;;9.80;1.40;;;;;;;13.76;74.82;99982.26;110027;1273;23159;-78
2023/07/19 04:32:28;;;;;;;6.10;1.40;;;;;;;13.86;74.99;99976.41;110005;1270;22153;-79
2023/07/19 04:34:59;;;;;;;6.50;1.50;;;;;;;13.97;75.06;99977.80;110011;1273;22868;-80
2023/07/19 04:37:30;;;;;;;8.30;2.00;;;;;;;14.09;75.06;99973.88;109996;1276;22883;-79
2023/07/19 04:40:01;;;;;;;8.90;1.40;;;;;;;14.21;75.15;99975.97;109997;1274;22857;-79
2023/07/19 04:42:31;;;;;;;8.50;1.80;;;;;;;14.34;74.88;99976.57;109988;1276;22186;-77
2023/07/19 04:45:03;;;;;;;6.70;1.50;;;;;;;14.45;74.78;99975.43;110023;1277;22339;-77
2023/07/19 04:47:34;;;;;;;6.30;1.60;;;;;;;14.56;74.54;99977.26;109981;1278;22394;-77
2023/07/19 04:50:05;;;;;;;8.70;1.40;;;;;;;14.66;74.42;99974.64;109917;1274;23127;-76
2023/07/19 04:52:37;;;;;;;7.10;1.50;;;;;;;14.75;74.56;99969.86;110005;1277;23345;-77
2023/07/19 04:55:09;;;;;;;6.40;1.70;;;;;;;14.84;74.44;99967.29;109992;1274;22214;-77
2023/07/19 04:57:41;;;;;;;8.60;1.40;;;;;;;14.96;74.46;99966.14;109991;1274;22224;-77
2023/07/19 05:00:14;;;;;;;9.10;1.60;;;;;;;15.05;74.44;99970.95;109978;1280;22224;-78
2023/07/19 05:02:45;;;;;;;12.70;1.80;;;;;;;15.14;74.03;99977.89;110019;1274;22282;-77
2023/07/19 05:05:15;;;;;;;7.00;1.40;;;;;;;15.23;73.88;99980.09;109988;1273;23120;-77
2023/07/19 05:07:46;;;;;;;7.20;1.50;;;;;;;15.31;73.40;99981.80;109794;1280;22555;-77
2023/07/19 05:10:17;;;;;;;6.30;1.40;;;;;;;15.42;73.51;99978.60;107428;1272;23343;-77
2023/07/19 05:12:48;;;;;;;9.00;1.60;;;;;;;15.55;73.58;99975.17;107444;1265;25598;-77
2023/07/19 05:15:18;;;;;;;7.30;1.70;;;;;;;15.69;73.19;99975.59;107368;1280;25488;-76
2023/07/19 05:17:49;;;;;;;7.40;1.10;;;;;;;15.80;72.56;99972.52;107406;1276;22561;-77
2023/07/19 05:20:20;;;;;;;7.00;1.40;;;;;;;15.89;72.59;99969.68;107420;1280;24258;-76
2023/07/19 05:22:51;;;;;;;9.60;1.60;;;;;;;15.98;72.30;99968.64;107455;1280;24328;-77
2023/07/19 05:25:22;;;;;;;6.20;1.60;;;;;;;16.05;72.03;99963.48;107444;1277;24236;-77
2023/07/19 05:27:53;;;;;;;7.80;1.60;;;;;;;16.12;71.97;99966.29;107416;1276;25360;-77
2023/07/19 05:30:23;;;;;;;8.60;1.60;;;;;;;16.20;71.52;99963.55;107393;1274;24780;-77
2023/07/19 05:32:54;;;;;;;7.20;1.50;;;;;;;16.30;71.32;99960.26;107367;1274;26258;-77
2023/07/19 05:35:25;;;;;;;6.10;1.40;;;;;;;16.45;71.60;99960.84;107433;1274;24208;-77
2023/07/19 05:37:56;;;;;;;8.30;1.40;;;;;;;16.62;71.11;99961.11;107475;1280;22529;-78
2023/07/19 05:40:27;;;;;;;10.00;1.70;;;;;;;16.77;70.87;99955.78;107472;1274;24208;-77
2023/07/19 05:42:57;;;;;;;6.60;1.40;;;;;;;16.92;70.86;99954.69;107383;1275;22525;-77
2023/07/19 05:45:28;;;;;;;7.90;1.40;;;;;;;17.10;70.74;99948.69;107430;1274;26014;-77
2023/07/19 05:47:59;;;;;;;7.20;1.30;;;;;;;17.27;70.10;99943.77;107469;1274;22523;-77
2023/07/19 05:50:30;;;;;;;8.00;1.40;;;;;;;17.39;69.18;99939.55;107437;1280;22550;-77
2023/07/19 05:53:01;;;;;;;10.90;1.90;;;;;;;17.50;68.91;99937.00;107372;1275;23347;-77
2023/07/19 05:55:32;;;;;;;11.80;1.70;;;;;;;17.62;68.79;99944.59;107393;1274;22539;-77
2023/07/19 05:58:02;;;;;;;7.70;1.40;;;;;;;17.73;68.81;99945.36;107438;1265;25433;-77
2023/07/19 06:00:33;;;;;;;9.80;1.90;;;;;;;17.85;68.32;99938.66;107401;1274;23322;-77
2023/07/19 06:03:04;;;;;;;6.00;1.20;;;;;;;18.02;68.31;99934.17;107462;1264;25428;-77
2023/07/19 06:05:35;;;;;;;12.80;1.60;;;;;;;18.18;67.87;99934.21;107391;1274;22520;-77
2023/07/19 06:08:06;;;;;;;6.00;1.10;;;;;;;18.32;66.94;99934.70;107337;1280;24317;-77
2023/07/19 06:10:36;;;;;;;8.50;1.30;;;;;;;18.43;66.11;99933.75;107120;1280;23025;-77
2023/07/19 06:13:07;;;;;;;7.30;1.70;;;;;;;18.53;65.96;99930.45;106882;1280;23039;-77
2023/07/19 06:15:38;;;;;;;6.20;1.30;;;;;;;18.60;65.44;99931.63;107503;1274;24210;-77
2023/07/19 06:18:09;;;;;;;7.00;1.30;;;;;;;18.69;64.68;99928.98;107409;1280;24197;-78
2023/07/19 06:20:39;;;;;;;8.70;1.10;;;;;;;18.76;64.64;99926.42;107308;1257;22700;-77
2023/07/19 06:23:10;;;;;;;8.50;1.20;;;;;;;18.88;64.29;99923.86;107450;1261;22544;-77
2023/07/19 06:25:41;;;;;;;8.20;1.40;;;;;;;19.00;64.18;99922.49;107441;1280;22750;-77
2023/07/19 06:28:11;;;;;;;6.00;1.10;;;;;;;19.12;63.89;99922.81;107464;1274;23957;-77
2023/07/19 06:30:43;;;;;;;8.70;1.50;;;;;;;19.25;63.56;99922.89;107427;1273;25372;-78
2023/07/19 06:33:13;;;;;;;6.80;1.20;;;;;;;19.34;62.97;99922.25;107590;1276;23911;-78
2023/07/19 06:35:44;;;;;;;8.00;1.70;;;;;;;19.47;63.06;99915.61;107498;1274;22508;-77
2023/07/19 06:38:15;;;;;;;9.10;1.40;;;;;;;19.58;62.43;99910.88;107457;1273;22545;-77
2023/07/19 06:40:45;;;;;;;8.30;1.40;;;;;;;19.66;62.03;99907.60;107413;1280;22527;-77
2023/07/19 06:43:16;;;;;;;6.90;1.80;;;;;;;19.74;61.61;99905.41;107538;1277;22501;-78
2023/07/19 06:45:49;;;;;;;6.20;1.20;;;;;;;19.84;61.58;99904.95;107458;1274;25435;-77
2023/07/19 06:48:19;;;;;;;7.70;1.20;;;;;;;19.97;61.61;99904.85;107477;1277;22474;-77
2023/07/19 06:50:50;;;;;;;10.00;1.50;;;;;;;20.09;60.94;99904.90;107497;1280;25305;-77
2023/07/19 06:53:21;;;;;;;10.10;1.80;;;;;;;20.22;60.92;99903.58;107386;1274;24179;-78
2023/07/19 06:55:54;;;;;;;5.90;1.20;;;;;;;20.31;60.45;99905.30;107458;1280;22577;-77
2023/07/19 06:58:25;;;;;;;7.00;1.30;;;;;;;20.39;60.19;99908.61;107476;1277;22553;-78
2023/07/19 07:00:58;;;;;;;6.20;1.50;;;;;;;20.49;60.04;99906.27;107477;1274;22523;-78
2023/07/19 07:03:30;;;;;;;8.20;1.90;;;;;;;20.61;60.01;99907.19;107413;1273;25329;-77
2023/07/19 07:06:00;;;;;;;6.70;1.20;;;;;;;20.71;59.42;99897.27;107415;1279;22523;-77
2023/07/19 07:08:31;;;;;;;8.20;1.20;;;;;;;20.81;58.69;99893.85;107470;1276;25447;-78
2023/07/19 07:11:04;;;;;;;12.80;1.60;;;;;;;20.86;58.84;99896.52;107455;1280;24218;-78
2023/07/19 07:13:34;;;;;;;6.10;1.00;;;;;;;20.96;58.61;99891.55;107348;1274;22549;-77
2023/07/19 07:16:05;;;;;;;10.30;1.90;;;;;;;21.06;57.77;99889.09;107407;1280;23300;-78
2023/07/19 07:18:37;;;;;;;10.40;1.80;;;;;;;21.15;57.77;99890.69;107443;1276;23294;-78
2023/07/19 07:21:10;;;;;;;7.40;1.10;;;;;;;21.26;57.70;99888.95;107335;1276;22523;-79
2023/07/19 07:23:41;;;;;;;7.30;1.10;;;;;;;21.36;57.42;99889.87;107400;1273;22527;-79
2023/07/19 07:26:12;;;;;;;7.60;1.40;;;;;;;21.44;57.41;99885.30;107461;1273;22551;-79
2023/07/19 07:28:44;;;;;;;7.30;1.60;;;;;;;21.53;57.26;99881.56;109957;1274;22673;-79
2023/07/19 07:31:14;;;;;;;7.40;1.00;;;;;;;21.64;57.22;99883.44;110013;1274;22178;-79
2023/07/19 07:33:45;;;;;;;7.90;1.20;;;;;;;21.75;56.79;99886.07;110026;1275;22153;-79
2023/07/19 07:36:16;;;;;;;7.10;1.10;;;;;;;21.89;55.91;99881.52;109986;1274;22130;-79
2023/07/19 07:38:48;;;;;;;5.60;1.10;;;;;;;22.02;55.76;99878.89;109967;1277;22217;-79
2023/07/19 07:41:19;;;;;;;5.30;0.90;;;;;;;22.13;55.32;99876.52;109982;1274;22215;-79
2023/07/19 07:43:49;;;;;;;6.60;1.10;;;;;;;22.24;54.88;99877.39;110034;1280;22253;-79
2023/07/19 07:46:20;;;;;;;6.50;1.40;;;;;;;22.40;54.62;99877.84;109971;1274;22207;-79
2023/07/19 07:48:51;;;;;;;15.20;5.90;;;;;;;22.55;53.74;99876.49;109986;1280;22564;-79
2023/07/19 07:51:22;;;;;;;5.10;1.10;;;;;;;22.70;53.70;99874.73;109956;1272;22207;-80
2023/07/19 07:53:53;;;;;;;4.90;0.90;;;;;;;22.88;53.03;99878.27;109982;1274;22905;-79
2023/07/19 07:56:25;;;;;;;8.50;1.10;;;;;;;23.00;52.25;99877.79;109983;1280;22823;-79
2023/07/19 07:58:56;;;;;;;4.10;0.70;;;;;;;23.08;51.66;99880.98;109988;1280;22229;-79
2023/07/19 08:01:27;;;;;;;3.70;1.00;;;;;;;23.15;51.59;99879.27;110022;1274;22170;-79
2023/07/19 08:03:58;;;;;;;6.00;0.80;;;;;;;23.23;50.88;99870.78;110024;1276;22123;-79
2023/07/19 08:06:29;;;;;;;7.90;1.40;;;;;;;23.29;50.43;99873.61;109961;1275;22143;-79
2023/07/19 08:08:59;;;;;;;4.50;0.90;;;;;;;23.36;50.14;99871.39;109992;1272;22984;-79
2023/07/19 08:11:32;;;;;;;4.70;0.80;;;;;;;23.45;49.81;99869.73;109987;1273;22177;-79
2023/07/19 08:14:02;;;;;;;5.80;1.00;;;;;;;23.54;49.25;99871.30;109982;1280;22897;-79
2023/07/19 08:16:54;;;;;;;5.30;0.80;;;;;;;23.65;48.76;99867.52;109999;1280;22192;-79
2023/07/19 08:19:25;;;;;;;3.90;0.70;;;;;;;23.75;48.35;99870.45;110030;1277;22468;-79
2023/07/19 08:22:00;;;;;;;11.30;1.10;;;;;;;23.82;47.89;99864.20;109963;1280;22116;-79
2023/07/19 08:24:31;;;;;;;5.60;0.80;;;;;;;23.88;47.44;99864.46;110022;1274;22158;-80
2023/07/19 08:27:02;;;;;;;4.30;0.70;;;;;;;23.95;47.27;99860.91;110016;1279;23126;-79
2023/07/19 08:29:33;;;;;;;4.20;0.90;;;;;;;24.06;47.42;99863.30;110001;1280;22578;-79
2023/07/19 08:32:04;;;;;;;5.80;0.80;;;;;;;24.16;46.80;99869.00;110011;1280;22218;-79
2023/07/19 08:34:35;;;;;;;13.30;1.20;;;;;;;24.23;46.60;99861.08;109984;1271;22378;-79
2023/07/19 08:37:06;;;;;;;6.90;0.80;;;;;;;24.36;46.52;99857.03;110003;1274;22299;-79
2023/07/19 08:39:37;;;;;;;5.10;1.00;;;;;;;24.48;46.43;99853.65;109971;1280;22220;-79
2023/07/19 08:42:08;;;;;;;6.00;1.00;;;;;;;24.57;45.53;99851.66;109972;1280;22177;-80
2023/07/19 08:44:40;;;;;;;4.70;1.10;;;;;;;24.58;45.23;99840.08;109974;1277;23029;-80
2023/07/19 08:47:12;;;;;;;5.00;0.90;;;;;;;24.65;45.38;99836.84;109979;1280;22345;-79
2023/07/19 08:49:44;;;;;;;6.70;1.00;;;;;;;24.74;45.21;99834.94;109972;1280;22574;-80
2023/07/19 08:52:15;;;;;;;4.20;0.90;;;;;;;24.90;45.13;99837.20;110008;1280;22526;-80
2023/07/19 08:54:46;;;;;;;6.20;0.90;;;;;;;25.05;44.65;99838.58;109977;1280;22136;-80
2023/07/19 08:57:16;;;;;;;9.60;1.80;;;;;;;25.19;44.38;99834.27;110009;1274;23043;-80
2023/07/19 08:59:47;;;;;;;9.20;1.20;;;;;;;25.29;43.87;99832.83;109984;1277;22192;-79
2023/07/19 09:02:18;;;;;;;8.30;1.10;;;;;;;25.36;43.62;99824.14;109994;1271;22366;-80
2023/07/19 09:05:06;;;;;;;5.90;1.00;;;;;;;25.38;42.70;99821.23;110027;1280;22163;-80
2023/07/19 09:07:37;;;;;;;9.60;1.10;;;;;;;25.33;42.53;99817.02;110040;1280;22899;-79
2023/07/19 09:10:10;;;;;;;6.90;1.00;;;;;;;25.32;42.33;99816.54;110007;1280;22563;-80
2023/07/19 09:12:44;;;;;;;6.10;0.90;;;;;;;25.32;42.26;99813.63;110019;1270;22180;-80
2023/07/19 09:15:15;;;;;;;5.50;0.90;;;;;;;25.31;42.31;99810.16;110005;1276;22308;-79
2023/07/19 09:17:47;;;;;;;3.10;0.80;;;;;;;25.38;42.81;99806.04;110025;1273;22124;-79
2023/07/19 09:20:19;;;;;;;7.20;1.10;;;;;;;25.52;42.67;99805.73;109997;1280;22284;-80
2023/07/19 09:22:50;;;;;;;9.60;1.60;;;;;;;25.64;41.86;99803.80;110027;1280;22128;-80
2023/07/19 09:25:21;;;;;;;8.00;1.00;;;;;;;25.64;41.19;99798.54;109995;1273;22229;-80
2023/07/19 09:27:53;;;;;;;4.70;1.10;;;;;;;25.59;41.21;99794.73;110047;1277;22799;-79
2023/07/19 09:30:23;;;;;;;7.10;1.20;;;;;;;25.66;41.82;99798.66;110052;1279;22154;-79
2023/07/19 09:33:01;;;;;;;6.20;1.10;;;;;;;25.74;40.99;99796.41;110053;1268;22145;-79
2023/07/19 09:35:32;;;;;;;6.10;1.50;;;;;;;25.74;40.84;99790.41;110019;1280;22163;-79
2023/07/19 09:38:03;;;;;;;11.10;1.60;;;;;;;25.78;40.92;99787.50;110009;1280;22164;-79
2023/07/19 09:40:34;;;;;;;7.90;1.20;;;;;;;25.89;41.05;99789.16;109976;1280;22977;-79
2023/07/19 09:43:06;;;;;;;4.70;0.90;;;;;;;26.03;41.17;99784.02;109965;1274;22327;-79
2023/07/19 09:45:40;;;;;;;5.80;1.10;;;;;;;26.17;40.92;99787.10;109999;1277;22528;-79
2023/07/19 09:48:11;;;;;;;6.50;1.20;;;;;;;26.27;40.87;99783.48;110053;1274;22245;-80
2023/07/19 09:50:42;;;;;;;6.40;0.90;;;;;;;26.35;40.11;99783.10;109967;1278;22479;-79
2023/07/19 09:53:14;;;;;;;5.10;1.00;;;;;;;26.34;39.70;99779.14;109955;1273;22367;-79
2023/07/19 09:55:48;;;;;;;4.60;0.90;;;;;;;26.34;39.55;99774.27;110019;1275;22121;-80
2023/07/19 09:58:21;;;;;;;6.60;1.00;;;;;;;26.34;39.19;99772.25;110044;1275;22153;-79
2023/07/19 10:00:52;;;;;;;7.90;1.20;;;;;;;26.29;39.01;99764.02;110035;1273;22960;-79
2023/07/19 10:03:25;;;;;;;6.10;1.00;;;;;;;26.27;38.77;99765.00;110076;1277;22147;-80
2023/07/19 10:06:00;;;;;;;5.00;0.80;;;;;;;26.26;38.83;99763.77;110039;1277;22641;-80
2023/07/19 10:08:30;;;;;;;5.40;1.00;;;;;;;26.24;38.06;99763.20;109991;1273;22781;-79
2023/07/19 10:11:03;;;;;;;5.90;1.00;;;;;;;26.18;38.01;99761.20;110047;1277;23168;-79
2023/07/19 10:13:51;;;;;;;6.10;1.10;;;;;;;26.18;37.89;99755.84;110035;1280;22177;-80
2023/07/19 10:16:31;;;;;;;4.40;0.80;;;;;;;26.22;37.69;99752.59;110075;1280;22149;-80
2023/07/19 10:19:12;;;;;;;5.60;1.10;;;;;;;26.23;37.72;99750.66;109974;1277;22906;-79
2023/07/19 10:22:01;;;;;;;5.50;1.10;;;;;;;26.26;37.59;99745.58;110020;1274;22247;-79
2023/07/19 10:24:32;;;;;;;6.90;1.00;;;;;;;26.31;37.46;99747.58;109999;1279;22361;-79
2023/07/19 10:27:05;;;;;;;5.00;0.80;;;;;;;26.32;37.15;99744.62;110036;1278;22343;-80
2023/07/19 10:29:43;;;;;;;5.70;0.90;;;;;;;26.33;37.27;99741.85;109992;1273;22202;-80
2023/07/19 10:32:14;;;;;;;8.40;1.00;;;;;;;26.38;37.07;99742.21;110019;1274;22398;-79
2023/07/19 10:34:49;;;;;;;9.40;1.20;;;;;;;26.43;37.31;99740.02;110046;1271;22185;-79
2023/07/19 10:37:20;;;;;;;9.80;1.20;;;;;;;26.49;36.97;99739.41;110039;1277;22309;-80
2023/07/19 10:39:51;;;;;;;6.90;1.10;;;;;;;26.52;36.31;99742.40;109992;1278;22180;-80
2023/07/19 10:42:21;;;;;;;5.70;1.30;;;;;;;26.56;36.45;99744.66;110067;1279;23028;-80
2023/07/19 10:44:52;;;;;;;4.10;1.00;;;;;;;26.60;36.82;99736.83;110004;1275;22172;-79
2023/07/19 10:47:24;;;;;;;5.00;0.90;;;;;;;26.67;36.54;99740.34;109989;1274;22155;-79
2023/07/19 10:49:54;;;;;;;7.10;1.00;;;;;;;26.69;36.03;99735.52;109982;1280;22246;-80
2023/07/19 10:52:25;;;;;;;6.90;1.00;;;;;;;26.72;36.47;99732.47;110008;1274;22241;-79
2023/07/19 10:54:57;;;;;;;5.00;1.20;;;;;;;26.80;36.77;99730.05;110050;1280;22308;-80
2023/07/19 10:57:28;;;;;;;4.70;0.80;;;;;;;26.90;37.18;99726.60;110016;1273;22347;-80
2023/07/19 10:59:59;;;;;;;8.70;1.10;;;;;;;27.00;36.54;99725.02;109996;1277;22208;-80
2023/07/19 11:02:30;;;;;;;9.60;1.10;;;;;;;27.06;36.61;99718.63;110003;1270;22494;-80
2023/07/19 11:05:02;;;;;;;3.50;0.80;;;;;;;27.09;36.15;99718.27;109995;1280;23003;-80
2023/07/19 11:07:36;;;;;;;2.90;0.80;;;;;;;27.05;35.85;99714.70;110060;1277;22964;-79
2023/07/19 11:10:09;;;;;;;6.60;1.10;;;;;;;26.96;35.39;99721.19;110037;1270;23646;-80
2023/07/19 11:12:41;;;;;;;3.90;0.80;;;;;;;26.84;35.33;99716.89;109996;1273;23471;-80
2023/07/19 11:15:21;;;;;;;5.50;0.80;;;;;;;26.84;35.72;99715.88;109994;1280;22229;-80
2023/07/19 11:17:58;;;;;;;4.20;0.80;;;;;;;26.93;35.97;99714.56;105905;1277;5372517;-80
2023/07/19 11:20:34;;;;;;;6.60;1.00;;;;;;;27.07;35.72;99709.55;110018;1273;22701;-79
2023/07/19 11:23:10;;;;;;;5.70;1.20;;;;;;;27.16;35.66;99704.33;110016;1277;22327;-80
2023/07/19 11:25:42;;;;;;;4.20;0.80;;;;;;;27.26;35.38;99696.16;110015;1280;22805;-79
2023/07/19 11:28:13;;;;;;;6.40;1.00;;;;;;;27.36;35.44;99694.27;110036;1276;22221;-80
2023/07/19 11:30:44;;;;;;;3.40;0.90;;;;;;;27.51;35.41;99694.20;110027;1277;22172;-79
2023/07/19 11:33:18;;;;;;;5.20;1.00;;;;;;;27.70;35.20;99693.05;109975;1277;22203;-80
2023/07/19 11:35:53;;;;;;;4.80;0.90;;;;;;;27.81;35.07;99690.96;109985;1280;22282;-80
2023/07/19 11:38:24;;;;;;;7.70;1.10;;;;;;;27.84;34.11;99689.21;109972;1273;22941;-79
2023/07/19 11:40:55;;;;;;;7.60;0.90;;;;;;;27.86;34.06;99692.73;110001;1280;22188;-79
2023/07/19 11:43:29;;;;;;;5.30;0.90;;;;;;;27.83;34.01;99683.55;109982;1277;22148;-79